sensor_id;sensor_type;location;lat;lon;timestamp;pressure;altitude;pressure_sealevel;temperature;humidity
25526;BME280;13424;48.424;11.258;2023-03-04T00:00:37;95932.50;;;4.06;77.63
25526;BME280;13424;48.424;11.258;2023-03-04T00:03:08;95925.34;;;3.79;78.57
25526;BME280;13424;48.424;11.258;2023-03-04T00:05:36;95924.41;;;3.86;78.24
25526;BME280;13424;48.424;11.258;2023-03-04T00:08:02;95942.84;;;3.80;78.36
25526;BME280;13424;48.424;11.258;2023-03-04T00:10:34;95935.41;;;3.90;77.28
25526;BME280;13424;48.424;11.258;2023-03-04T00:13:00;95932.91;;;4.10;75.24
25526;BME280;13424;48.424;11.258;2023-03-04T00:15:26;95932.28;;;3.80;76.59
25526;BME280;13424;48.424;11.258;2023-03-04T00:17:52;95936.03;;;3.92;74.45
25526;BME280;13424;48.424;11.258;2023-03-04T00:20:17;95928.19;;;3.77;73.65
25526;BME280;13424;48.424;11.258;2023-03-04T00:22:43;95925.34;;;3.79;73.23
25526;BME280;13424;48.424;11.258;2023-03-04T00:25:09;95933.78;;;3.68;75.25
25526;BME280;13424;48.424;11.258;2023-03-04T00:27:35;95937.66;;;3.50;75.84
25526;BME280;13424;48.424;11.258;2023-03-04T00:30:01;95940.88;;;3.67;73.48
25526;BME280;13424;48.424;11.258;2023-03-04T00:32:28;95940.13;;;3.73;74.78
25526;BME280;13424;48.424;11.258;2023-03-04T00:34:53;95942.19;;;3.78;74.07
25526;BME280;13424;48.424;11.258;2023-03-04T00:37:19;95930.72;;;3.64;73.24
25526;BME280;13424;48.424;11.258;2023-03-04T00:39:45;95931.00;;;3.76;73.46
25526;BME280;13424;48.424;11.258;2023-03-04T00:42:11;95940.03;;;3.45;74.66
25526;BME280;13424;48.424;11.258;2023-03-04T00:44:37;95939.50;;;3.50;74.73
25526;BME280;13424;48.424;11.258;2023-03-04T00:47:03;95943.91;;;3.64;74.09
25526;BME280;13424;48.424;11.258;2023-03-04T00:49:29;95941.19;;;3.57;73.66
25526;BME280;13424;48.424;11.258;2023-03-04T00:51:55;95941.56;;;3.76;73.01
25526;BME280;13424;48.424;11.258;2023-03-04T00:54:21;95947.66;;;3.76;73.44
25526;BME280;13424;48.424;11.258;2023-03-04T00:56:46;95946.81;;;3.54;73.38
25526;BME280;13424;48.424;11.258;2023-03-04T00:59:12;95938.94;;;3.40;73.33
25526;BME280;13424;48.424;11.258;2023-03-04T01:01:38;95942.59;;;3.39;73.29
25526;BME280;13424;48.424;11.258;2023-03-04T01:04:04;95939.84;;;3.47;72.45
25526;BME280;13424;48.424;11.258;2023-03-04T01:06:29;95939.59;;;3.42;72.63
25526;BME280;13424;48.424;11.258;2023-03-04T01:08:55;95933.91;;;3.59;72.72
25526;BME280;13424;48.424;11.258;2023-03-04T01:11:22;95922.59;;;3.66;72.83
25526;BME280;13424;48.424;11.258;2023-03-04T01:13:48;95926.59;;;3.61;72.92
25526;BME280;13424;48.424;11.258;2023-03-04T01:16:14;95924.56;;;3.57;72.71
25526;BME280;13424;48.424;11.258;2023-03-04T01:18:40;95917.69;;;3.41;72.72
25526;BME280;13424;48.424;11.258;2023-03-04T01:21:07;95920.50;;;3.40;71.75
25526;BME280;13424;48.424;11.258;2023-03-04T01:23:33;95914.13;;;3.49;72.29
25526;BME280;13424;48.424;11.258;2023-03-04T01:26:00;95909.50;;;3.36;72.22
25526;BME280;13424;48.424;11.258;2023-03-04T01:28:26;95903.31;;;3.44;72.33
25526;BME280;13424;48.424;11.258;2023-03-04T01:30:52;95907.72;;;3.22;74.66
25526;BME280;13424;48.424;11.258;2023-03-04T01:33:18;95902.47;;;3.22;74.31
25526;BME280;13424;48.424;11.258;2023-03-04T01:35:43;95906.47;;;3.18;75.85
25526;BME280;13424;48.424;11.258;2023-03-04T01:38:09;95899.78;;;3.36;76.68
25526;BME280;13424;48.424;11.258;2023-03-04T01:40:35;95901.47;;;3.44;75.99
25526;BME280;13424;48.424;11.258;2023-03-04T01:43:02;95907.38;;;3.46;75.62
25526;BME280;13424;48.424;11.258;2023-03-04T01:45:50;95902.00;;;3.33;75.46
25526;BME280;13424;48.424;11.258;2023-03-04T01:48:21;95901.03;;;3.19;75.27
25526;BME280;13424;48.424;11.258;2023-03-04T01:50:49;95893.13;;;3.19;74.83
25526;BME280;13424;48.424;11.258;2023-03-04T01:53:22;95893.63;;;2.93;75.24
25526;BME280;13424;48.424;11.258;2023-03-04T01:55:53;95889.88;;;3.02;73.67
25526;BME280;13424;48.424;11.258;2023-03-04T01:58:25;95888.50;;;3.06;73.76
25526;BME280;13424;48.424;11.258;2023-03-04T02:00:53;95883.00;;;3.01;72.70
25526;BME280;13424;48.424;11.258;2023-03-04T02:03:18;95875.97;;;3.08;72.85
25526;BME280;13424;48.424;11.258;2023-03-04T02:05:50;95873.88;;;3.04;72.97
25526;BME280;13424;48.424;11.258;2023-03-04T02:08:19;95878.78;;;3.07;72.43
25526;BME280;13424;48.424;11.258;2023-03-04T02:10:45;95882.09;;;3.16;72.26
25526;BME280;13424;48.424;11.258;2023-03-04T02:13:12;95873.81;;;2.97;74.09
25526;BME280;13424;48.424;11.258;2023-03-04T02:15:38;95880.56;;;2.85;74.63
25526;BME280;13424;48.424;11.258;2023-03-04T02:18:16;95890.13;;;3.07;74.87
25526;BME280;13424;48.424;11.258;2023-03-04T02:21:13;95871.22;;;3.40;73.39
25526;BME280;13424;48.424;11.258;2023-03-04T02:23:59;95880.25;;;3.31;73.34
25526;BME280;13424;48.424;11.258;2023-03-04T02:26:30;95873.56;;;3.14;72.60
25526;BME280;13424;48.424;11.258;2023-03-04T02:28:58;95878.22;;;3.12;73.10
25526;BME280;13424;48.424;11.258;2023-03-04T02:31:38;95873.06;;;3.03;72.81
25526;BME280;13424;48.424;11.258;2023-03-04T02:34:10;95881.41;;;3.07;72.40
25526;BME280;13424;48.424;11.258;2023-03-04T02:36:36;95876.31;;;3.05;72.83
25526;BME280;13424;48.424;11.258;2023-03-04T02:39:22;95871.06;;;3.05;72.33
25526;BME280;13424;48.424;11.258;2023-03-04T02:41:52;95876.84;;;3.16;72.51
25526;BME280;13424;48.424;11.258;2023-03-04T02:44:25;95870.94;;;3.14;72.10
25526;BME280;13424;48.424;11.258;2023-03-04T02:46:52;95876.31;;;3.05;71.71
25526;BME280;13424;48.424;11.258;2023-03-04T02:49:19;95879.22;;;3.11;72.18
25526;BME280;13424;48.424;11.258;2023-03-04T02:51:45;95873.78;;;3.12;71.59
25526;BME280;13424;48.424;11.258;2023-03-04T02:54:20;95865.63;;;2.92;72.05
25526;BME280;13424;48.424;11.258;2023-03-04T02:56:49;95868.91;;;2.94;72.08
25526;BME280;13424;48.424;11.258;2023-03-04T02:59:16;95870.28;;;2.90;73.41
25526;BME280;13424;48.424;11.258;2023-03-04T03:01:42;95871.22;;;2.68;73.84
25526;BME280;13424;48.424;11.258;2023-03-04T03:04:08;95868.06;;;2.58;74.65
25526;BME280;13424;48.424;11.258;2023-03-04T03:06:35;95865.31;;;2.51;76.10
25526;BME280;13424;48.424;11.258;2023-03-04T03:09:01;95863.94;;;2.85;74.57
25526;BME280;13424;48.424;11.258;2023-03-04T03:11:28;95871.06;;;3.05;73.69
25526;BME280;13424;48.424;11.258;2023-03-04T03:13:54;95870.34;;;2.97;74.17
25526;BME280;13424;48.424;11.258;2023-03-04T03:16:20;95874.13;;;2.73;74.50
25526;BME280;13424;48.424;11.258;2023-03-04T03:18:49;95874.28;;;2.86;73.88
25526;BME280;13424;48.424;11.258;2023-03-04T03:21:14;95878.47;;;2.80;74.40
25526;BME280;13424;48.424;11.258;2023-03-04T03:23:40;95873.63;;;2.84;74.38
25526;BME280;13424;48.424;11.258;2023-03-04T03:26:06;95870.38;;;2.82;74.67
25526;BME280;13424;48.424;11.258;2023-03-04T03:28:32;95866.59;;;2.70;74.70
25526;BME280;13424;48.424;11.258;2023-03-04T03:30:59;95862.38;;;2.90;74.35
25526;BME280;13424;48.424;11.258;2023-03-04T03:33:25;95877.56;;;2.73;75.02
25526;BME280;13424;48.424;11.258;2023-03-04T03:35:50;95875.03;;;3.16;73.88
25526;BME280;13424;48.424;11.258;2023-03-04T03:38:16;95874.03;;;2.81;74.05
25526;BME280;13424;48.424;11.258;2023-03-04T03:40:42;95867.84;;;2.74;74.58
25526;BME280;13424;48.424;11.258;2023-03-04T03:43:08;95867.84;;;2.74;75.64
25526;BME280;13424;48.424;11.258;2023-03-04T03:45:33;95867.44;;;2.56;77.79
25526;BME280;13424;48.424;11.258;2023-03-04T03:48:00;95871.59;;;2.65;77.70
25526;BME280;13424;48.424;11.258;2023-03-04T03:50:28;95866.84;;;2.75;76.94
25526;BME280;13424;48.424;11.258;2023-03-04T03:52:54;95867.22;;;2.72;76.65
25526;BME280;13424;48.424;11.258;2023-03-04T03:55:21;95869.53;;;2.96;74.68
25526;BME280;13424;48.424;11.258;2023-03-04T03:57:47;95865.63;;;2.92;74.69
25526;BME280;13424;48.424;11.258;2023-03-04T04:00:14;95870.28;;;2.75;74.76
25526;BME280;13424;48.424;11.258;2023-03-04T04:02:41;95869.34;;;2.62;75.27
25526;BME280;13424;48.424;11.258;2023-03-04T04:05:07;95867.16;;;2.50;74.77
25526;BME280;13424;48.424;11.258;2023-03-04T04:07:34;95875.84;;;2.36;76.33
25526;BME280;13424;48.424;11.258;2023-03-04T04:10:04;95872.88;;;2.54;75.98
25526;BME280;13424;48.424;11.258;2023-03-04T04:12:31;95868.88;;;2.58;76.29
25526;BME280;13424;48.424;11.258;2023-03-04T04:14:57;95868.53;;;2.46;76.34
25526;BME280;13424;48.424;11.258;2023-03-04T04:17:23;95869.16;;;2.48;75.06
25526;BME280;13424;48.424;11.258;2023-03-04T04:19:48;95857.00;;;2.47;74.87
25526;BME280;13424;48.424;11.258;2023-03-04T04:22:17;95865.63;;;2.41;75.46
25526;BME280;13424;48.424;11.258;2023-03-04T04:24:43;95868.78;;;2.37;75.57
25526;BME280;13424;48.424;11.258;2023-03-04T04:27:09;95857.34;;;2.44;73.70
25526;BME280;13424;48.424;11.258;2023-03-04T04:29:36;95854.16;;;2.49;73.22
25526;BME280;13424;48.424;11.258;2023-03-04T04:32:02;95856.31;;;2.60;73.08
25526;BME280;13424;48.424;11.258;2023-03-04T04:34:28;95843.81;;;2.62;72.86
25526;BME280;13424;48.424;11.258;2023-03-04T04:36:54;95861.88;;;2.50;72.82
25526;BME280;13424;48.424;11.258;2023-03-04T04:39:21;95848.09;;;2.48;72.93
25526;BME280;13424;48.424;11.258;2023-03-04T04:41:47;95850.25;;;2.60;71.94
25526;BME280;13424;48.424;11.258;2023-03-04T04:44:13;95849.28;;;2.31;73.13
25526;BME280;13424;48.424;11.258;2023-03-04T04:46:40;95852.72;;;2.17;73.52
25526;BME280;13424;48.424;11.258;2023-03-04T04:49:06;95856.09;;;2.40;72.24
25526;BME280;13424;48.424;11.258;2023-03-04T04:51:34;95857.44;;;2.36;72.81
25526;BME280;13424;48.424;11.258;2023-03-04T04:54:01;95857.34;;;2.15;74.80
25526;BME280;13424;48.424;11.258;2023-03-04T04:56:27;95860.16;;;2.28;74.98
25526;BME280;13424;48.424;11.258;2023-03-04T04:58:57;95858.53;;;2.42;75.32
25526;BME280;13424;48.424;11.258;2023-03-04T05:01:24;95849.53;;;2.66;73.40
25526;BME280;13424;48.424;11.258;2023-03-04T05:03:50;95856.91;;;2.41;73.35
25526;BME280;13424;48.424;11.258;2023-03-04T05:06:18;95855.63;;;2.07;74.05
25526;BME280;13424;48.424;11.258;2023-03-04T05:08:45;95861.22;;;1.89;75.99
25526;BME280;13424;48.424;11.258;2023-03-04T05:11:11;95865.25;;;2.00;76.68
25526;BME280;13424;48.424;11.258;2023-03-04T05:13:37;95863.59;;;1.84;77.72
25526;BME280;13424;48.424;11.258;2023-03-04T05:19:37;95867.91;;;1.77;77.20
25526;BME280;13424;48.424;11.258;2023-03-04T05:22:03;95869.84;;;1.83;77.24
25526;BME280;13424;48.424;11.258;2023-03-04T05:24:29;95872.34;;;1.77;76.92
25526;BME280;13424;48.424;11.258;2023-03-04T05:26:55;95867.25;;;1.98;76.41
25526;BME280;13424;48.424;11.258;2023-03-04T05:29:21;95878.88;;;1.66;77.45
25526;BME280;13424;48.424;11.258;2023-03-04T05:31:55;95868.13;;;1.53;77.43
25526;BME280;13424;48.424;11.258;2023-03-04T05:34:21;95870.75;;;1.53;77.33
25526;BME280;13424;48.424;11.258;2023-03-04T05:36:47;95874.44;;;1.21;79.16
25526;BME280;13424;48.424;11.258;2023-03-04T05:39:13;95877.00;;;1.52;78.32
25526;BME280;13424;48.424;11.258;2023-03-04T05:41:39;95869.06;;;1.60;78.61
25526;BME280;13424;48.424;11.258;2023-03-04T05:44:04;95870.53;;;1.77;75.90
25526;BME280;13424;48.424;11.258;2023-03-04T05:46:30;95876.47;;;1.94;77.04
25526;BME280;13424;48.424;11.258;2023-03-04T05:48:56;95865.56;;;1.97;76.56
25526;BME280;13424;48.424;11.258;2023-03-04T05:51:22;95877.19;;;1.88;75.66
25526;BME280;13424;48.424;11.258;2023-03-04T05:53:48;95875.50;;;1.72;76.72
25526;BME280;13424;48.424;11.258;2023-03-04T05:56:17;95870.19;;;1.80;76.91
25526;BME280;13424;48.424;11.258;2023-03-04T05:58:45;95870.31;;;1.64;78.56
25526;BME280;13424;48.424;11.258;2023-03-04T06:01:12;95874.56;;;1.50;77.50
25526;BME280;13424;48.424;11.258;2023-03-04T06:03:38;95878.75;;;1.59;78.08
25526;BME280;13424;48.424;11.258;2023-03-04T06:06:04;95873.25;;;1.69;78.27
25526;BME280;13424;48.424;11.258;2023-03-04T06:08:30;95884.00;;;1.82;77.25
25526;BME280;13424;48.424;11.258;2023-03-04T06:10:56;95879.63;;;1.89;77.83
25526;BME280;13424;48.424;11.258;2023-03-04T06:13:23;95878.56;;;1.99;76.61
25526;BME280;13424;48.424;11.258;2023-03-04T06:15:54;95884.75;;;2.06;77.30
25526;BME280;13424;48.424;11.258;2023-03-04T06:18:21;95885.09;;;2.03;77.43
25526;BME280;13424;48.424;11.258;2023-03-04T06:20:47;95886.13;;;2.31;76.59
25526;BME280;13424;48.424;11.258;2023-03-04T06:23:13;95892.03;;;2.33;76.60
25526;BME280;13424;48.424;11.258;2023-03-04T06:25:39;95896.19;;;2.42;76.39
25526;BME280;13424;48.424;11.258;2023-03-04T06:28:06;95898.50;;;2.45;76.57
25526;BME280;13424;48.424;11.258;2023-03-04T06:30:33;95898.84;;;2.72;75.55
25526;BME280;13424;48.424;11.258;2023-03-04T06:32:58;95906.00;;;2.78;74.29
25526;BME280;13424;48.424;11.258;2023-03-04T06:35:24;95901.78;;;2.98;73.65
25526;BME280;13424;48.424;11.258;2023-03-04T06:37:50;95906.06;;;2.99;73.45
25526;BME280;13424;48.424;11.258;2023-03-04T06:40:16;95910.53;;;2.84;74.25
25526;BME280;13424;48.424;11.258;2023-03-04T06:42:42;95909.78;;;2.90;74.28
25526;BME280;13424;48.424;11.258;2023-03-04T06:45:09;95908.53;;;2.86;74.21
25526;BME280;13424;48.424;11.258;2023-03-04T06:47:35;95906.34;;;2.90;74.45
25526;BME280;13424;48.424;11.258;2023-03-04T06:50:01;95916.25;;;3.24;73.46
25526;BME280;13424;48.424;11.258;2023-03-04T06:52:28;95912.44;;;2.90;74.62
25526;BME280;13424;48.424;11.258;2023-03-04T06:54:54;95917.56;;;2.77;75.27
25526;BME280;13424;48.424;11.258;2023-03-04T06:57:20;95925.41;;;2.92;74.86
25526;BME280;13424;48.424;11.258;2023-03-04T06:59:45;95925.41;;;3.06;74.35
25526;BME280;13424;48.424;11.258;2023-03-04T07:02:11;95931.84;;;3.19;73.92
25526;BME280;13424;48.424;11.258;2023-03-04T07:04:38;95930.66;;;3.06;74.52
25526;BME280;13424;48.424;11.258;2023-03-04T07:07:04;95943.13;;;2.98;75.11
25526;BME280;13424;48.424;11.258;2023-03-04T07:09:30;95939.97;;;3.02;75.07
25526;BME280;13424;48.424;11.258;2023-03-04T07:11:56;95937.72;;;2.70;76.31
25526;BME280;13424;48.424;11.258;2023-03-04T07:14:23;95948.69;;;2.73;76.83
25526;BME280;13424;48.424;11.258;2023-03-04T07:16:48;95943.03;;;2.91;76.10
25526;BME280;13424;48.424;11.258;2023-03-04T07:19:14;95948.69;;;3.39;74.71
25526;BME280;13424;48.424;11.258;2023-03-04T07:21:40;95950.50;;;3.39;74.77
25526;BME280;13424;48.424;11.258;2023-03-04T07:24:06;95954.38;;;3.57;74.79
25526;BME280;13424;48.424;11.258;2023-03-04T07:26:59;95950.34;;;3.40;74.99
25526;BME280;13424;48.424;11.258;2023-03-04T07:29:25;95952.38;;;3.81;74.31
25526;BME280;13424;48.424;11.258;2023-03-04T07:31:51;95951.25;;;4.18;73.20
25526;BME280;13424;48.424;11.258;2023-03-04T07:34:16;95951.19;;;4.33;72.59
25526;BME280;13424;48.424;11.258;2023-03-04T07:36:43;95953.78;;;4.54;72.00
25526;BME280;13424;48.424;11.258;2023-03-04T07:43:15;95955.56;;;4.47;71.90
25526;BME280;13424;48.424;11.258;2023-03-04T07:45:41;95955.94;;;4.44;72.46
25526;BME280;13424;48.424;11.258;2023-03-04T07:48:07;95961.75;;;4.33;72.54
25526;BME280;13424;48.424;11.258;2023-03-04T07:50:33;95957.53;;;4.38;73.36
25526;BME280;13424;48.424;11.258;2023-03-04T07:52:59;95964.13;;;4.84;71.94
25526;BME280;13424;48.424;11.258;2023-03-04T07:55:24;95965.41;;;4.32;73.24
25526;BME280;13424;48.424;11.258;2023-03-04T07:57:52;95968.28;;;4.37;73.94
25526;BME280;13424;48.424;11.258;2023-03-04T08:00:18;95964.56;;;4.03;74.61
25526;BME280;13424;48.424;11.258;2023-03-04T08:02:44;95965.16;;;4.27;74.99
25526;BME280;13424;48.424;11.258;2023-03-04T08:05:10;95964.59;;;4.31;73.81
25526;BME280;13424;48.424;11.258;2023-03-04T08:07:35;95962.56;;;4.61;73.17
25526;BME280;13424;48.424;11.258;2023-03-04T08:10:02;95962.25;;;4.78;72.48
25526;BME280;13424;48.424;11.258;2023-03-04T08:12:31;95972.81;;;5.12;71.44
25526;BME280;13424;48.424;11.258;2023-03-04T08:14:57;95966.88;;;4.13;73.15
25526;BME280;13424;48.424;11.258;2023-03-04T08:17:22;95968.72;;;4.68;73.03
25526;BME280;13424;48.424;11.258;2023-03-04T08:19:48;95965.94;;;4.20;73.43
25526;BME280;13424;48.424;11.258;2023-03-04T08:22:14;95965.84;;;4.98;72.75
25526;BME280;13424;48.424;11.258;2023-03-04T08:24:40;95973.38;;;5.01;72.50
25526;BME280;13424;48.424;11.258;2023-03-04T08:27:06;95979.13;;;4.76;73.02
25526;BME280;13424;48.424;11.258;2023-03-04T08:29:31;95974.47;;;4.79;72.95
25526;BME280;13424;48.424;11.258;2023-03-04T08:31:57;95978.84;;;4.37;73.60
25526;BME280;13424;48.424;11.258;2023-03-04T08:34:26;95973.75;;;4.63;74.60
25526;BME280;13424;48.424;11.258;2023-03-04T08:36:52;95980.59;;;4.86;73.13
25526;BME280;13424;48.424;11.258;2023-03-04T08:39:19;95976.69;;;4.75;72.08
25526;BME280;13424;48.424;11.258;2023-03-04T08:41:46;95974.75;;;4.90;72.07
25526;BME280;13424;48.424;11.258;2023-03-04T08:44:12;95975.72;;;5.24;72.83
25526;BME280;13424;48.424;11.258;2023-03-04T08:46:40;95989.16;;;4.88;73.59
25526;BME280;13424;48.424;11.258;2023-03-04T08:49:07;95983.53;;;5.39;71.53
25526;BME280;13424;48.424;11.258;2023-03-04T08:51:33;95989.94;;;5.16;71.58
25526;BME280;13424;48.424;11.258;2023-03-04T08:54:14;95990.13;;;5.63;70.05
25526;BME280;13424;48.424;11.258;2023-03-04T08:56:40;95986.78;;;6.02;69.52
25526;BME280;13424;48.424;11.258;2023-03-04T08:59:06;95991.25;;;5.95;69.85
25526;BME280;13424;48.424;11.258;2023-03-04T09:01:32;95987.00;;;4.98;70.11
25526;BME280;13424;48.424;11.258;2023-03-04T09:03:58;95989.44;;;6.02;70.25
25526;BME280;13424;48.424;11.258;2023-03-04T09:06:24;95984.66;;;5.77;67.57
25526;BME280;13424;48.424;11.258;2023-03-04T09:08:50;95981.38;;;5.75;67.17
25526;BME280;13424;48.424;11.258;2023-03-04T09:11:15;95975.63;;;5.45;67.39
25526;BME280;13424;48.424;11.258;2023-03-04T09:13:42;95987.59;;;6.15;67.71
25526;BME280;13424;48.424;11.258;2023-03-04T09:16:12;95987.41;;;6.43;68.29
25526;BME280;13424;48.424;11.258;2023-03-04T09:18:40;95973.16;;;6.18;66.60
25526;BME280;13424;48.424;11.258;2023-03-04T09:21:09;95986.59;;;6.10;67.06
25526;BME280;13424;48.424;11.258;2023-03-04T09:23:37;95978.16;;;5.86;66.48
25526;BME280;13424;48.424;11.258;2023-03-04T09:26:22;95981.72;;;6.73;66.19
25526;BME280;13424;48.424;11.258;2023-03-04T09:28:51;95974.56;;;6.54;67.49
25526;BME280;13424;48.424;11.258;2023-03-04T09:31:17;95979.44;;;5.97;67.20
25526;BME280;13424;48.424;11.258;2023-03-04T09:33:42;95977.44;;;6.19;69.15
25526;BME280;13424;48.424;11.258;2023-03-04T09:36:10;95981.91;;;6.65;67.34
25526;BME280;13424;48.424;11.258;2023-03-04T09:38:37;95978.25;;;6.26;68.26
25526;BME280;13424;48.424;11.258;2023-03-04T09:41:21;95984.94;;;6.15;68.32
25526;BME280;13424;48.424;11.258;2023-03-04T09:43:52;95984.22;;;5.67;67.76
25526;BME280;13424;48.424;11.258;2023-03-04T09:46:34;95991.06;;;6.23;66.44
25526;BME280;13424;48.424;11.258;2023-03-04T09:49:02;95992.78;;;5.63;68.29
25526;BME280;13424;48.424;11.258;2023-03-04T09:51:43;95991.06;;;6.29;65.83
25526;BME280;13424;48.424;11.258;2023-03-04T10:01:11;95985.34;;;5.99;66.42
25526;BME280;13424;48.424;11.258;2023-03-04T10:03:48;95995.69;;;7.20;64.54
25526;BME280;13424;48.424;11.258;2023-03-04T10:06:19;95991.06;;;5.42;66.47
25526;BME280;13424;48.424;11.258;2023-03-04T10:12:06;95989.59;;;6.99;65.61
25526;BME280;13424;48.424;11.258;2023-03-04T10:14:59;95994.03;;;5.25;66.68
25526;BME280;13424;48.424;11.258;2023-03-04T10:17:37;95991.13;;;5.55;68.98
25526;BME280;13424;48.424;11.258;2023-03-04T10:22:47;95989.56;;;5.80;66.76
25526;BME280;13424;48.424;11.258;2023-03-04T10:25:28;95990.47;;;6.54;67.54
25526;BME280;13424;48.424;11.258;2023-03-04T10:28:11;95987.00;;;6.66;65.39
25526;BME280;13424;48.424;11.258;2023-03-04T10:33:35;95997.19;;;6.36;67.02
25526;BME280;13424;48.424;11.258;2023-03-04T10:38:55;95996.56;;;6.21;66.08
25526;BME280;13424;48.424;11.258;2023-03-04T10:41:24;95997.81;;;6.58;66.80
25526;BME280;13424;48.424;11.258;2023-03-04T10:46:38;95996.56;;;6.01;67.12
25526;BME280;13424;48.424;11.258;2023-03-04T10:49:04;95992.19;;;5.80;67.58
25526;BME280;13424;48.424;11.258;2023-03-04T10:51:30;95994.44;;;5.83;66.65
25526;BME280;13424;48.424;11.258;2023-03-04T10:54:05;95988.69;;;4.78;70.85
25526;BME280;13424;48.424;11.258;2023-03-04T10:57:05;95982.13;;;4.17;70.98
25526;BME280;13424;48.424;11.258;2023-03-04T10:59:48;95985.91;;;4.86;69.33
25526;BME280;13424;48.424;11.258;2023-03-04T11:05:22;95988.78;;;3.49;73.66
25526;BME280;13424;48.424;11.258;2023-03-04T11:07:52;95991.00;;;3.67;71.05
25526;BME280;13424;48.424;11.258;2023-03-04T11:13:20;95985.13;;;5.33;67.67
25526;BME280;13424;48.424;11.258;2023-03-04T11:15:55;95986.88;;;5.67;66.63
25526;BME280;13424;48.424;11.258;2023-03-04T11:21:02;95978.47;;;5.50;69.72
25526;BME280;13424;48.424;11.258;2023-03-04T11:23:42;95979.75;;;5.74;66.05
25526;BME280;13424;48.424;11.258;2023-03-04T11:26:17;95976.97;;;5.35;67.76
25526;BME280;13424;48.424;11.258;2023-03-04T11:29:10;95985.19;;;5.53;66.96
25526;BME280;13424;48.424;11.258;2023-03-04T11:32:19;95979.88;;;5.40;66.48
25526;BME280;13424;48.424;11.258;2023-03-04T11:35:14;95973.50;;;5.27;66.83
25526;BME280;13424;48.424;11.258;2023-03-04T11:38:17;95976.56;;;5.99;67.15
25526;BME280;13424;48.424;11.258;2023-03-04T11:40:56;95979.44;;;6.96;62.66
25526;BME280;13424;48.424;11.258;2023-03-04T11:43:38;95973.38;;;6.17;64.90
25526;BME280;13424;48.424;11.258;2023-03-04T11:49:36;95976.03;;;5.01;68.28
25526;BME280;13424;48.424;11.258;2023-03-04T11:52:13;95984.78;;;4.73;68.30
25526;BME280;13424;48.424;11.258;2023-03-04T11:55:17;95975.78;;;4.96;68.88
25526;BME280;13424;48.424;11.258;2023-03-04T12:01:09;95965.72;;;4.50;68.98
25526;BME280;13424;48.424;11.258;2023-03-04T12:04:12;95965.25;;;5.57;66.79
25526;BME280;13424;48.424;11.258;2023-03-04T12:09:41;95960.66;;;4.20;69.90
25526;BME280;13424;48.424;11.258;2023-03-04T12:25:18;95936.78;;;5.04;67.94
25526;BME280;13424;48.424;11.258;2023-03-04T12:28:29;95943.94;;;4.13;68.19
25526;BME280;13424;48.424;11.258;2023-03-04T12:31:06;95931.91;;;5.63;67.69
25526;BME280;13424;48.424;11.258;2023-03-04T12:39:40;95929.72;;;6.59;64.02
25526;BME280;13424;48.424;11.258;2023-03-04T12:45:29;95910.53;;;5.84;64.81
25526;BME280;13424;48.424;11.258;2023-03-04T12:56:26;95904.69;;;5.95;65.73
25526;BME280;13424;48.424;11.258;2023-03-04T12:58:54;95909.19;;;5.27;66.39
25526;BME280;13424;48.424;11.258;2023-03-04T13:01:36;95910.34;;;6.71;64.29
25526;BME280;13424;48.424;11.258;2023-03-04T13:04:35;95897.69;;;5.54;64.72
25526;BME280;13424;48.424;11.258;2023-03-04T13:07:37;95891.50;;;5.27;67.17
25526;BME280;13424;48.424;11.258;2023-03-04T13:10:16;95887.50;;;5.58;66.27
25526;BME280;13424;48.424;11.258;2023-03-04T13:12:56;95884.47;;;5.61;65.86
25526;BME280;13424;48.424;11.258;2023-03-04T13:15:38;95880.63;;;5.70;65.06
25526;BME280;13424;48.424;11.258;2023-03-04T13:18:32;95886.09;;;5.62;64.89
25526;BME280;13424;48.424;11.258;2023-03-04T13:21:28;95884.09;;;5.03;67.33
25526;BME280;13424;48.424;11.258;2023-03-04T13:23:57;95881.25;;;6.25;64.98
25526;BME280;13424;48.424;11.258;2023-03-04T13:26:32;95887.34;;;5.79;64.10
25526;BME280;13424;48.424;11.258;2023-03-04T13:31:59;95886.19;;;6.93;62.53
25526;BME280;13424;48.424;11.258;2023-03-04T13:34:50;95878.91;;;4.82;65.35
25526;BME280;13424;48.424;11.258;2023-03-04T13:37:33;95878.75;;;5.64;64.57
25526;BME280;13424;48.424;11.258;2023-03-04T13:42:48;95868.50;;;5.21;64.25
25526;BME280;13424;48.424;11.258;2023-03-04T13:45:40;95871.16;;;4.67;65.89
25526;BME280;13424;48.424;11.258;2023-03-04T13:48:31;95869.84;;;5.98;64.26
25526;BME280;13424;48.424;11.258;2023-03-04T13:50:57;95866.41;;;5.03;65.75
25526;BME280;13424;48.424;11.258;2023-03-04T13:53:41;95869.16;;;4.75;67.61
25526;BME280;13424;48.424;11.258;2023-03-04T13:56:21;95862.34;;;5.01;65.68
25526;BME280;13424;48.424;11.258;2023-03-04T13:59:25;95864.09;;;5.48;64.26
25526;BME280;13424;48.424;11.258;2023-03-04T14:02:12;95864.94;;;5.88;62.48
25526;BME280;13424;48.424;11.258;2023-03-04T14:04:45;95860.03;;;4.85;65.98
25526;BME280;13424;48.424;11.258;2023-03-04T14:07:35;95864.66;;;5.37;65.37
25526;BME280;13424;48.424;11.258;2023-03-04T14:10:22;95871.75;;;4.69;66.05
25526;BME280;13424;48.424;11.258;2023-03-04T14:12:52;95866.03;;;5.13;65.70
25526;BME280;13424;48.424;11.258;2023-03-04T14:15:26;95862.81;;;4.29;67.23
25526;BME280;13424;48.424;11.258;2023-03-04T14:17:57;95871.16;;;4.04;66.51
25526;BME280;13424;48.424;11.258;2023-03-04T14:20:38;95864.38;;;4.58;67.82
25526;BME280;13424;48.424;11.258;2023-03-04T14:23:34;95862.25;;;4.05;67.43
25526;BME280;13424;48.424;11.258;2023-03-04T14:26:13;95845.06;;;4.57;66.60
25526;BME280;13424;48.424;11.258;2023-03-04T14:28:50;95853.94;;;5.65;64.08
25526;BME280;13424;48.424;11.258;2023-03-04T14:31:23;95854.94;;;4.35;66.99
25526;BME280;13424;48.424;11.258;2023-03-04T14:33:52;95849.03;;;4.81;65.79
25526;BME280;13424;48.424;11.258;2023-03-04T14:36:22;95847.56;;;5.26;63.91
25526;BME280;13424;48.424;11.258;2023-03-04T14:38:55;95839.97;;;4.14;67.05
25526;BME280;13424;48.424;11.258;2023-03-04T14:41:34;95836.03;;;4.80;65.97